createdAt,value
2023-02-18T00:00:18.150Z,11.80
2023-02-18T00:02:46.284Z,11.18
2023-02-18T00:05:14.203Z,12.80
2023-02-18T00:07:41.852Z,10.98
2023-02-18T00:10:11.901Z,9.93
2023-02-18T00:12:39.138Z,12.30
2023-02-18T00:15:06.801Z,12.02
2023-02-18T00:17:34.071Z,12.40
2023-02-18T00:20:01.279Z,10.52
2023-02-18T00:22:28.406Z,9.88
2023-02-18T00:24:55.561Z,10.50
2023-02-18T00:27:22.710Z,11.07
2023-02-18T00:29:49.882Z,11.55
2023-02-18T00:32:17.110Z,9.80
2023-02-18T00:34:44.332Z,10.00
2023-02-18T00:37:11.498Z,11.90
2023-02-18T00:39:38.658Z,9.82
2023-02-18T00:42:05.963Z,10.70
2023-02-18T00:44:33.125Z,10.65
2023-02-18T00:47:00.285Z,12.52
2023-02-18T00:49:27.574Z,12.20
2023-02-18T00:51:54.789Z,10.57
2023-02-18T00:54:21.936Z,11.63
2023-02-18T00:56:49.113Z,11.13
2023-02-18T00:59:16.400Z,10.40
2023-02-18T01:01:43.628Z,10.70
2023-02-18T01:04:11.000Z,11.10
2023-02-18T01:06:38.265Z,11.82
2023-02-18T01:09:05.882Z,10.43
2023-02-18T01:11:33.612Z,11.65
2023-02-18T01:14:00.754Z,15.48
2023-02-18T01:16:28.007Z,10.35
2023-02-18T01:18:55.178Z,11.10
2023-02-18T01:21:22.318Z,10.20
2023-02-18T01:23:49.546Z,9.32
2023-02-18T01:26:16.678Z,10.00
2023-02-18T01:28:43.843Z,11.05
2023-02-18T01:31:12.831Z,13.50
2023-02-18T01:33:40.037Z,10.65
2023-02-18T01:36:07.894Z,10.60
2023-02-18T01:38:35.168Z,11.00
2023-02-18T01:41:02.537Z,10.25
2023-02-18T01:43:29.750Z,10.43
2023-02-18T01:46:17.640Z,9.32
2023-02-18T01:48:47.214Z,10.35
2023-02-18T01:51:17.351Z,9.93
2023-02-18T01:53:49.584Z,10.00
2023-02-18T01:56:23.850Z,10.30
2023-02-18T01:58:51.628Z,10.13
2023-02-18T02:01:18.962Z,9.68
2023-02-18T02:03:46.095Z,11.15
2023-02-18T02:06:17.146Z,10.00
2023-02-18T02:08:45.387Z,9.93
2023-02-18T02:11:22.128Z,9.85
2023-02-18T02:13:49.259Z,10.02
2023-02-18T02:16:24.828Z,11.10
2023-02-18T02:19:10.439Z,9.60
2023-02-18T02:21:54.500Z,9.38
2023-02-18T02:24:24.333Z,9.10
2023-02-18T02:27:07.052Z,10.20
2023-02-18T02:29:37.276Z,9.25
2023-02-18T02:32:23.468Z,9.98
2023-02-18T02:37:17.771Z,9.52
2023-02-18T02:39:53.930Z,8.73
2023-02-18T02:42:27.362Z,9.40
2023-02-18T02:44:54.466Z,9.30
2023-02-18T02:47:27.279Z,8.95
2023-02-18T02:49:59.032Z,10.02
2023-02-18T02:52:49.594Z,9.18
2023-02-18T02:55:16.945Z,9.80
2023-02-18T02:57:44.103Z,8.45
2023-02-18T03:00:13.165Z,8.73
2023-02-18T03:02:40.383Z,9.05
2023-02-18T03:05:26.063Z,9.25
2023-02-18T03:07:59.314Z,8.63
2023-02-18T03:10:45.050Z,9.25
2023-02-18T03:13:34.204Z,9.35
2023-02-18T03:16:04.259Z,8.95
2023-02-18T03:18:35.818Z,9.85
2023-02-18T03:21:06.022Z,8.35
2023-02-18T03:23:39.492Z,9.40
2023-02-18T03:26:07.810Z,9.25
2023-02-18T03:28:35.844Z,9.27
2023-02-18T03:31:06.484Z,9.38
2023-02-18T03:33:38.337Z,8.82
2023-02-18T03:36:05.890Z,9.32
2023-02-18T03:38:38.170Z,8.73
2023-02-18T03:41:06.175Z,9.10
2023-02-18T03:43:33.511Z,9.63
2023-02-18T03:46:00.919Z,9.13
2023-02-18T03:48:28.202Z,9.55
2023-02-18T03:50:55.382Z,8.85
2023-02-18T03:53:22.912Z,9.55
2023-02-18T03:55:50.036Z,9.07
2023-02-18T03:58:17.209Z,8.23
2023-02-18T04:00:44.380Z,8.48
2023-02-18T04:03:11.556Z,9.02
2023-02-18T04:05:38.790Z,8.95
2023-02-18T04:08:06.024Z,10.13
2023-02-18T04:10:33.208Z,9.43
2023-02-18T04:13:00.701Z,9.95
2023-02-18T04:15:27.879Z,10.15
2023-02-18T04:17:55.045Z,9.73
2023-02-18T04:20:22.665Z,8.45
2023-02-18T04:22:49.878Z,9.27
2023-02-18T04:25:17.097Z,9.07
2023-02-18T04:27:44.283Z,8.75
2023-02-18T04:30:12.045Z,9.35
2023-02-18T04:32:39.259Z,9.20
2023-02-18T04:35:06.905Z,8.60
2023-02-18T04:37:34.150Z,9.45
2023-02-18T04:40:01.353Z,8.35
2023-02-18T04:42:28.467Z,8.45
2023-02-18T04:44:55.685Z,9.45
2023-02-18T04:47:22.885Z,15.60
2023-02-18T04:49:50.056Z,8.88
2023-02-18T04:52:17.264Z,9.27
2023-02-18T04:54:44.436Z,8.93
2023-02-18T04:57:11.753Z,9.35
2023-02-18T04:59:39.403Z,9.43
2023-02-18T05:02:06.657Z,8.93
2023-02-18T05:04:33.886Z,8.35
2023-02-18T05:07:01.031Z,8.35
2023-02-18T05:09:28.243Z,8.48
2023-02-18T05:11:55.349Z,8.07
2023-02-18T05:14:22.474Z,9.25
2023-02-18T05:16:49.588Z,8.57
2023-02-18T05:19:17.360Z,8.50
2023-02-18T05:21:45.154Z,8.23
2023-02-18T05:24:12.392Z,8.50
2023-02-18T05:26:39.560Z,8.18
2023-02-18T05:29:06.883Z,9.15
2023-02-18T05:31:34.243Z,9.73
2023-02-18T05:34:01.435Z,8.07
2023-02-18T05:36:28.599Z,8.60
2023-02-18T05:38:55.744Z,8.88
2023-02-18T05:41:22.965Z,8.60
2023-02-18T05:44:09.092Z,8.88
2023-02-18T05:46:36.469Z,8.98
2023-02-18T05:49:03.745Z,8.48
2023-02-18T05:51:30.898Z,8.57
2023-02-18T05:53:58.157Z,8.30
2023-02-18T05:56:25.320Z,8.75
2023-02-18T05:58:52.491Z,8.48
2023-02-18T06:01:19.650Z,8.55
2023-02-18T06:03:46.820Z,8.63
2023-02-18T06:06:14.121Z,9.23
2023-02-18T06:08:41.389Z,9.20
2023-02-18T06:11:08.573Z,9.18
2023-02-18T06:13:35.731Z,9.52
2023-02-18T06:16:02.913Z,9.25
2023-02-18T06:18:30.130Z,9.07
2023-02-18T06:20:57.291Z,10.02
2023-02-18T06:23:24.470Z,8.35
2023-02-18T06:25:51.753Z,8.32
2023-02-18T06:28:19.042Z,9.02
2023-02-18T06:30:46.450Z,9.15
2023-02-18T06:33:13.685Z,8.75
2023-02-18T06:35:40.888Z,8.43
2023-02-18T06:38:08.123Z,9.57
2023-02-18T06:40:35.240Z,9.15
2023-02-18T06:43:02.423Z,8.73
2023-02-18T06:45:29.596Z,9.00
2023-02-18T06:47:56.789Z,8.95
2023-02-18T06:50:23.930Z,8.73
2023-02-18T06:52:51.144Z,8.93
2023-02-18T06:55:18.343Z,9.95
2023-02-18T06:57:45.542Z,13.02
2023-02-18T07:00:12.860Z,10.48
2023-02-18T07:02:40.025Z,9.40
2023-02-18T07:05:07.308Z,10.55
2023-02-18T07:07:34.606Z,11.23
2023-02-18T07:10:01.808Z,11.55
2023-02-18T07:12:29.135Z,11.23
2023-02-18T07:14:56.313Z,14.20
2023-02-18T07:17:23.429Z,14.38
2023-02-18T07:19:50.611Z,18.85
2023-02-18T07:22:17.903Z,16.63
2023-02-18T07:24:45.229Z,19.40
2023-02-18T07:27:12.433Z,14.30
2023-02-18T07:29:39.546Z,16.73
2023-02-18T07:32:07.095Z,16.77
2023-02-18T07:34:34.221Z,14.40
2023-02-18T07:37:01.424Z,15.20
2023-02-18T07:39:28.594Z,19.38
2023-02-18T07:41:55.850Z,13.13
2023-02-18T07:44:23.007Z,11.20
2023-02-18T07:46:50.104Z,18.75
2023-02-18T07:49:17.354Z,14.35
2023-02-18T07:51:44.582Z,11.82
2023-02-18T07:54:11.808Z,13.20
2023-02-18T07:56:39.009Z,18.50
2023-02-18T07:59:06.307Z,14.23
2023-02-18T08:01:33.437Z,14.40
2023-02-18T08:04:00.734Z,14.73
2023-02-18T08:06:32.350Z,18.23
2023-02-18T08:08:59.607Z,16.30
2023-02-18T08:11:26.868Z,12.75
2023-02-18T08:13:54.053Z,12.50
2023-02-18T08:16:21.970Z,12.13
2023-02-18T08:18:50.237Z,12.82
2023-02-18T08:21:18.244Z,12.52
2023-02-18T08:23:45.500Z,12.73
2023-02-18T08:26:13.012Z,11.43
2023-02-18T08:28:40.163Z,13.20
2023-02-18T08:31:07.716Z,15.32
2023-02-18T08:33:34.885Z,11.40
2023-02-18T08:36:02.071Z,12.70
2023-02-18T08:38:29.216Z,11.38
2023-02-18T08:41:09.724Z,11.77
2023-02-18T08:43:37.048Z,13.48
2023-02-18T08:46:04.397Z,10.30
2023-02-18T08:48:31.572Z,9.82
2023-02-18T08:50:59.070Z,11.00
2023-02-18T08:53:26.390Z,12.70
2023-02-18T08:55:53.592Z,15.15
2023-02-18T08:58:20.787Z,10.48
2023-02-18T09:00:48.021Z,14.10
2023-02-18T09:03:15.938Z,10.90
2023-02-18T09:05:43.299Z,11.82
2023-02-18T09:08:10.437Z,12.40
2023-02-18T09:10:39.459Z,13.38
2023-02-18T09:13:06.669Z,10.52
2023-02-18T09:15:33.810Z,16.90
2023-02-18T09:18:00.987Z,15.88
2023-02-18T09:20:28.416Z,16.48
2023-02-18T09:22:55.683Z,14.65
2023-02-18T09:25:22.852Z,13.23
2023-02-18T09:27:50.284Z,12.88
2023-02-18T09:30:17.596Z,10.60
2023-02-18T09:32:44.814Z,15.90
2023-02-18T09:35:12.085Z,10.90
2023-02-18T09:37:39.941Z,14.60
2023-02-18T09:40:07.429Z,15.50
2023-02-18T09:42:35.688Z,12.50
2023-02-18T09:45:05.939Z,10.75
2023-02-18T09:47:40.725Z,14.98
2023-02-18T09:50:28.301Z,11.95
2023-02-18T09:52:56.239Z,14.73
2023-02-18T09:55:25.943Z,11.80
2023-02-18T09:57:54.796Z,15.13
2023-02-18T10:00:41.430Z,13.82
2023-02-18T10:03:12.317Z,14.95
2023-02-18T10:05:40.870Z,13.50
2023-02-18T10:08:14.138Z,17.75
2023-02-18T10:10:44.353Z,119.85
2023-02-18T10:13:16.213Z,155.18
2023-02-18T10:15:43.653Z,151.18
2023-02-18T10:21:08.668Z,140.32
2023-02-18T10:23:37.882Z,131.88
2023-02-18T10:26:09.208Z,132.63
2023-02-18T10:28:37.415Z,108.90
2023-02-18T10:31:09.670Z,111.53
2023-02-18T10:33:43.310Z,109.25
2023-02-18T10:36:29.184Z,120.25
2023-02-18T10:39:15.294Z,100.95
2023-02-18T10:41:59.813Z,97.97
2023-02-18T10:44:48.270Z,92.68
2023-02-18T10:47:15.440Z,89.20
2023-02-18T10:49:57.096Z,89.97
2023-02-18T10:52:24.492Z,84.65
2023-02-18T10:54:53.243Z,91.18
2023-02-18T10:57:21.964Z,86.85
2023-02-18T10:59:56.993Z,80.18
2023-02-18T11:02:26.412Z,79.25
2023-02-18T11:04:53.661Z,71.05
2023-02-18T11:07:22.855Z,74.82
2023-02-18T11:09:51.824Z,70.32
2023-02-18T11:12:29.947Z,68.60
2023-02-18T11:15:15.519Z,64.30
2023-02-18T11:17:43.660Z,64.65
2023-02-18T11:20:31.879Z,68.93
2023-02-18T11:23:08.093Z,64.05
2023-02-18T11:25:36.815Z,64.75
2023-02-18T11:28:05.868Z,61.67
2023-02-18T11:30:33.644Z,65.82
2023-02-18T11:33:03.365Z,64.40
2023-02-18T11:35:32.581Z,62.00
2023-02-18T11:38:00.495Z,62.60
2023-02-18T11:40:33.227Z,55.13
2023-02-18T11:43:06.706Z,55.42
2023-02-18T11:45:35.093Z,54.35
2023-02-18T11:48:03.603Z,53.28
2023-02-18T11:50:34.203Z,60.17
2023-02-18T11:53:01.458Z,55.05
2023-02-18T11:55:31.030Z,52.85
2023-02-18T11:58:02.716Z,49.40
2023-02-18T12:00:49.338Z,49.83
2023-02-18T12:03:38.216Z,57.83
2023-02-18T12:06:07.030Z,57.30
2023-02-18T12:08:38.393Z,49.53
2023-02-18T12:11:11.603Z,51.80
2023-02-18T12:13:48.606Z,46.80
2023-02-18T12:16:15.940Z,48.63
2023-02-18T12:18:43.180Z,45.55
2023-02-18T12:21:12.721Z,45.95
2023-02-18T12:24:15.552Z,45.83
2023-02-18T12:26:50.289Z,39.35
2023-02-18T12:29:29.690Z,40.67
2023-02-18T12:31:59.687Z,39.63
2023-02-18T12:34:49.648Z,39.55
2023-02-18T12:37:35.825Z,39.38
2023-02-18T12:40:41.802Z,40.22
2023-02-18T12:43:09.018Z,35.92
2023-02-18T12:45:38.708Z,37.97
2023-02-18T12:48:28.348Z,38.15
2023-02-18T12:51:09.582Z,36.08
2023-02-18T12:53:36.886Z,36.80
2023-02-18T12:56:12.944Z,37.78
2023-02-18T12:58:48.911Z,42.25
2023-02-18T13:01:16.059Z,38.67
2023-02-18T13:03:43.621Z,41.00
2023-02-18T13:06:22.942Z,35.13
2023-02-18T13:08:55.735Z,36.00
2023-02-18T13:11:34.132Z,35.25
2023-02-18T13:14:01.412Z,33.50
2023-02-18T13:16:29.228Z,32.20
2023-02-18T13:19:12.087Z,32.28
2023-02-18T13:21:40.589Z,35.10
2023-02-18T13:24:15.138Z,37.30
2023-02-18T13:26:42.982Z,37.10
2023-02-18T13:29:19.240Z,35.20
2023-02-18T13:31:52.295Z,35.55
2023-02-18T13:34:19.443Z,37.60
2023-02-18T13:36:49.384Z,28.65
2023-02-18T13:39:20.408Z,26.55
2023-02-18T13:41:48.695Z,24.88
2023-02-18T13:44:22.179Z,33.55
2023-02-18T13:46:50.539Z,35.50
2023-02-18T13:49:25.592Z,35.97
2023-02-18T13:51:54.511Z,27.27
2023-02-18T13:54:25.774Z,172.57
2023-02-18T13:57:00.827Z,145.68
2023-02-18T13:59:36.181Z,102.38
2023-02-18T14:02:29.751Z,70.40
2023-02-18T14:05:09.250Z,61.15
2023-02-18T14:07:36.486Z,73.22
2023-02-18T14:10:07.464Z,66.25
2023-02-18T14:12:34.589Z,60.95
2023-02-18T14:15:01.918Z,59.15
2023-02-18T14:17:36.653Z,49.80
2023-02-18T14:20:03.821Z,45.58
2023-02-18T14:22:33.951Z,50.92
2023-02-18T14:25:03.353Z,49.22
2023-02-18T14:27:30.519Z,47.00
2023-02-18T14:30:03.329Z,42.25
2023-02-18T14:32:30.717Z,48.05
2023-02-18T14:35:00.762Z,50.17
2023-02-18T14:37:36.595Z,48.42
2023-02-18T14:42:49.865Z,37.53
2023-02-18T14:45:35.990Z,44.65
2023-02-18T14:48:21.278Z,44.80
2023-02-18T14:50:50.363Z,50.23
2023-02-18T14:53:22.789Z,35.03
2023-02-18T14:55:52.034Z,40.28
2023-02-18T14:58:25.156Z,41.33
2023-02-18T15:00:52.267Z,33.33
2023-02-18T15:03:22.342Z,38.38
2023-02-18T15:05:53.533Z,42.13
2023-02-18T15:08:24.846Z,41.38
2023-02-18T15:11:00.479Z,37.17
2023-02-18T15:13:32.397Z,35.60
2023-02-18T15:16:01.039Z,49.38
2023-02-18T15:18:30.365Z,42.80
2023-02-18T15:20:57.832Z,37.97
2023-02-18T15:23:25.086Z,30.88
2023-02-18T15:25:53.488Z,42.30
2023-02-18T15:28:22.434Z,41.28
2023-02-18T15:30:49.665Z,39.20
2023-02-18T15:33:18.536Z,37.58
2023-02-18T15:35:45.686Z,33.08
2023-02-18T15:38:21.912Z,40.13
2023-02-18T15:40:50.904Z,35.95
2023-02-18T15:43:21.685Z,31.90
2023-02-18T15:45:50.244Z,30.90
2023-02-18T15:48:36.632Z,36.58
2023-02-18T15:51:15.787Z,34.45
2023-02-18T15:53:45.837Z,38.97
2023-02-18T15:56:18.673Z,38.10
2023-02-18T15:58:45.819Z,29.90
2023-02-18T16:01:26.649Z,31.30
2023-02-18T16:03:54.913Z,31.58
2023-02-18T16:06:32.282Z,34.70
2023-02-18T16:09:04.629Z,28.70
2023-02-18T16:11:35.046Z,29.83
2023-02-18T16:14:02.302Z,31.33
2023-02-18T16:16:36.599Z,27.65
2023-02-18T16:19:04.361Z,24.33
2023-02-18T16:21:39.714Z,30.20
2023-02-18T16:24:27.044Z,26.88
2023-02-18T16:26:54.811Z,29.30
2023-02-18T16:29:45.032Z,27.20
2023-02-18T16:32:12.363Z,27.88
2023-02-18T16:34:48.773Z,28.45
2023-02-18T16:37:34.861Z,23.60
2023-02-18T16:40:03.506Z,34.75
2023-02-18T16:42:31.738Z,28.15
2023-02-18T16:44:58.848Z,26.35
2023-02-18T16:47:25.990Z,29.17
2023-02-18T16:49:55.549Z,32.05
2023-02-18T16:52:22.848Z,23.35
2023-02-18T16:54:50.239Z,23.13
2023-02-18T16:57:18.338Z,30.38
2023-02-18T16:59:45.475Z,26.10
2023-02-18T17:02:21.634Z,32.50
2023-02-18T17:04:48.945Z,19.10
2023-02-18T17:07:16.119Z,25.77
2023-02-18T17:09:43.238Z,20.48
2023-02-18T17:12:13.983Z,26.35
2023-02-18T17:14:41.211Z,24.33
2023-02-18T17:17:12.442Z,22.70
2023-02-18T17:19:39.595Z,23.02
2023-02-18T17:22:06.705Z,22.85
2023-02-18T17:24:33.848Z,22.08
2023-02-18T17:27:00.951Z,26.25
2023-02-18T17:29:28.099Z,16.63
2023-02-18T17:31:57.541Z,18.52
2023-02-18T17:34:30.834Z,18.80
2023-02-18T17:36:57.995Z,22.85
2023-02-18T17:39:25.247Z,19.98
2023-02-18T17:41:52.457Z,25.02
2023-02-18T17:44:20.997Z,22.63
2023-02-18T17:46:49.735Z,18.02
2023-02-18T17:49:17.353Z,19.33
2023-02-18T17:51:44.646Z,18.02
2023-02-18T17:54:19.258Z,18.65
2023-02-18T17:56:46.707Z,20.95
2023-02-18T17:59:13.968Z,19.23
2023-02-18T18:01:42.337Z,20.17
2023-02-18T18:04:14.374Z,19.92
2023-02-18T18:06:41.542Z,14.98
2023-02-18T18:09:08.744Z,18.42
2023-02-18T18:11:36.290Z,18.60
2023-02-18T18:14:03.604Z,22.90
2023-02-18T18:16:30.789Z,22.60
2023-02-18T18:18:58.023Z,20.23
2023-02-18T18:21:30.119Z,19.15
2023-02-18T18:23:57.360Z,19.00
2023-02-18T18:26:24.546Z,13.18
2023-02-18T18:28:51.767Z,15.57
2023-02-18T18:31:19.433Z,18.17
2023-02-18T18:33:51.336Z,17.63
2023-02-18T18:36:24.265Z,14.77
2023-02-18T18:38:51.712Z,15.02
2023-02-18T18:41:20.452Z,18.92
2023-02-18T18:43:47.629Z,15.23
2023-02-18T18:46:14.885Z,13.20
2023-02-18T18:48:42.357Z,15.95
2023-02-18T18:51:15.848Z,18.52
2023-02-18T18:53:43.330Z,19.88
2023-02-18T18:56:12.371Z,16.83
2023-02-18T18:58:39.574Z,19.63
2023-02-18T19:01:13.082Z,12.05
2023-02-18T19:03:41.469Z,13.85
2023-02-18T19:06:10.867Z,11.95
2023-02-18T19:08:38.127Z,14.73
2023-02-18T19:11:05.466Z,13.70
2023-02-18T19:13:33.768Z,15.73
2023-02-18T19:16:06.973Z,12.88
2023-02-18T19:18:34.624Z,18.02
2023-02-18T19:21:02.209Z,15.23
2023-02-18T19:23:29.466Z,13.77
2023-02-18T19:25:57.218Z,15.15
2023-02-18T19:28:24.418Z,17.95
2023-02-18T19:30:51.628Z,14.82
2023-02-18T19:33:18.897Z,14.55
2023-02-18T19:35:46.085Z,16.40
2023-02-18T19:38:14.250Z,13.55
2023-02-18T19:40:41.841Z,14.85
2023-02-18T19:43:09.332Z,18.30
2023-02-18T19:45:42.506Z,12.52
2023-02-18T19:48:10.239Z,13.68
2023-02-18T19:50:37.433Z,16.98
2023-02-18T19:53:05.879Z,13.50
2023-02-18T19:55:33.208Z,13.90
2023-02-18T19:58:00.326Z,15.63
2023-02-18T20:00:27.517Z,17.73
2023-02-18T20:02:54.689Z,14.57
2023-02-18T20:05:21.840Z,14.60
2023-02-18T20:07:49.008Z,13.75
2023-02-18T20:10:17.550Z,18.10
2023-02-18T20:12:44.778Z,13.18
2023-02-18T20:15:12.273Z,15.23
2023-02-18T20:17:39.689Z,14.57
2023-02-18T20:20:07.649Z,12.23
2023-02-18T20:22:35.589Z,19.10
2023-02-18T20:25:02.858Z,17.45
2023-02-18T20:27:30.020Z,12.27
2023-02-18T20:29:57.188Z,12.85
2023-02-18T20:32:24.430Z,15.38
2023-02-18T20:34:51.586Z,13.85
2023-02-18T20:37:18.756Z,14.13
2023-02-18T20:39:45.865Z,15.38
2023-02-18T20:42:16.745Z,14.80
2023-02-18T20:44:44.425Z,19.63
2023-02-18T20:47:13.507Z,16.77
2023-02-18T20:49:40.939Z,21.05
2023-02-18T20:52:09.036Z,12.15
2023-02-18T20:54:36.268Z,11.20
2023-02-18T20:57:03.482Z,16.05
2023-02-18T20:59:32.858Z,11.65
2023-02-18T21:02:00.153Z,11.25
2023-02-18T21:04:27.333Z,12.27
2023-02-18T21:06:55.348Z,13.15
2023-02-18T21:09:22.541Z,13.90
2023-02-18T21:11:49.772Z,13.75
2023-02-18T21:14:17.005Z,13.18
2023-02-18T21:16:44.334Z,15.02
2023-02-18T21:19:13.446Z,10.63
2023-02-18T21:21:40.628Z,15.20
2023-02-18T21:24:07.854Z,11.45
2023-02-18T21:26:35.402Z,9.48
2023-02-18T21:29:05.504Z,9.85
2023-02-18T21:31:34.281Z,10.98
2023-02-18T21:34:01.919Z,12.10
2023-02-18T21:36:29.079Z,12.77
2023-02-18T21:38:57.184Z,13.88
2023-02-18T21:41:24.569Z,13.27
2023-02-18T21:43:52.145Z,13.25
2023-02-18T21:46:19.416Z,14.38
2023-02-18T21:49:05.258Z,15.40
2023-02-18T21:52:11.151Z,11.05
2023-02-18T21:54:39.834Z,11.90
2023-02-18T21:57:08.821Z,9.82
2023-02-18T21:59:37.365Z,11.00
2023-02-18T22:02:05.934Z,12.80
2023-02-18T22:04:34.037Z,11.90
2023-02-18T22:07:02.403Z,11.60
2023-02-18T22:09:29.911Z,22.33
2023-02-18T22:11:57.070Z,10.65
2023-02-18T22:14:24.223Z,10.93
2023-02-18T22:16:51.432Z,12.75
2023-02-18T22:19:18.902Z,13.75
2023-02-18T22:21:46.083Z,13.13
2023-02-18T22:24:14.035Z,10.07
2023-02-18T22:26:41.712Z,13.40
2023-02-18T22:29:08.890Z,13.00
2023-02-18T22:31:36.118Z,14.70
2023-02-18T22:34:03.335Z,16.10
2023-02-18T22:36:30.636Z,15.68
2023-02-18T22:38:58.498Z,12.20
2023-02-18T22:41:26.399Z,12.13
2023-02-18T22:43:57.798Z,9.88
2023-02-18T22:46:25.220Z,11.10
2023-02-18T22:48:53.127Z,12.93
2023-02-18T22:51:24.936Z,11.88
2023-02-18T22:53:53.380Z,10.52
2023-02-18T22:56:21.137Z,9.70
2023-02-18T22:58:49.182Z,8.85
2023-02-18T23:01:23.626Z,12.63
2023-02-18T23:03:51.127Z,9.82
2023-02-18T23:06:19.024Z,11.38
2023-02-18T23:08:46.258Z,12.10
2023-02-18T23:11:14.826Z,12.07
2023-02-18T23:13:42.666Z,13.65
2023-02-18T23:16:12.834Z,10.65
2023-02-18T23:18:40.007Z,13.75
2023-02-18T23:21:17.288Z,12.52
2023-02-18T23:23:45.146Z,9.75
2023-02-18T23:26:12.340Z,10.20
2023-02-18T23:28:48.727Z,8.45
2023-02-18T23:31:22.193Z,10.07
2023-02-18T23:33:51.167Z,9.40
2023-02-18T23:36:19.820Z,8.48
2023-02-18T23:38:54.341Z,9.00
2023-02-18T23:41:22.091Z,8.35
2023-02-18T23:43:49.629Z,8.98
2023-02-18T23:46:18.821Z,9.88
2023-02-18T23:48:46.066Z,11.90
2023-02-18T23:51:15.039Z,8.32
2023-02-18T23:53:42.431Z,7.60
2023-02-18T23:56:12.720Z,10.90
2023-02-18T23:58:40.499Z,9.45
